createdAt,value
2018-10-16T00:01:47.334Z,8.80
2018-10-16T00:04:17.080Z,8.80
2018-10-16T00:06:46.803Z,8.70
2018-10-16T00:09:16.607Z,8.70
2018-10-16T00:12:00.591Z,8.70
2018-10-16T00:14:30.672Z,8.60
2018-10-16T00:17:01.440Z,8.70
2018-10-16T00:19:31.759Z,8.60
2018-10-16T00:22:02.091Z,8.60
2018-10-16T00:24:31.855Z,8.60
2018-10-16T00:27:01.593Z,8.50
2018-10-16T00:29:31.308Z,8.50
2018-10-16T00:32:01.121Z,8.50
2018-10-16T00:34:30.827Z,8.50
2018-10-16T00:37:00.679Z,8.50
2018-10-16T00:39:30.396Z,8.50
2018-10-16T00:42:00.216Z,8.50
2018-10-16T00:44:30.001Z,8.40
2018-10-16T00:46:59.814Z,8.50
2018-10-16T00:49:29.607Z,8.50
2018-10-16T00:51:59.366Z,8.40
2018-10-16T00:54:29.107Z,8.40
2018-10-16T00:56:58.830Z,8.40
2018-10-16T00:59:28.684Z,8.40
2018-10-16T01:01:58.410Z,8.30
2018-10-16T01:04:28.175Z,8.30
2018-10-16T01:06:57.908Z,8.30
2018-10-16T01:09:27.625Z,8.30
2018-10-16T01:11:57.492Z,8.20
2018-10-16T01:14:27.293Z,8.20
2018-10-16T01:16:57.151Z,8.20
2018-10-16T01:19:26.917Z,8.10
2018-10-16T01:21:56.702Z,8.10
2018-10-16T01:24:26.615Z,8.10
2018-10-16T01:26:56.428Z,8.10
2018-10-16T01:29:26.231Z,8.00
2018-10-16T01:31:56.023Z,8.00
2018-10-16T01:34:25.780Z,8.00
2018-10-16T01:36:55.527Z,7.90
2018-10-16T01:39:25.351Z,7.90
2018-10-16T01:41:55.161Z,7.90
2018-10-16T01:44:24.922Z,7.90
2018-10-16T01:46:54.696Z,7.90
2018-10-16T01:49:24.478Z,7.80
2018-10-16T01:51:54.308Z,7.80
2018-10-16T01:54:24.187Z,7.80
2018-10-16T01:56:54.025Z,7.70
2018-10-16T01:59:23.821Z,7.70
2018-10-16T02:01:53.314Z,7.70
2018-10-16T02:04:22.895Z,7.60
2018-10-16T02:06:52.561Z,7.60
2018-10-16T02:09:22.945Z,7.60
2018-10-16T02:11:52.422Z,7.50
2018-10-16T02:14:22.002Z,7.50
2018-10-16T02:16:51.469Z,7.50
2018-10-16T02:19:20.968Z,7.50
2018-10-16T02:21:50.506Z,7.50
2018-10-16T02:24:20.010Z,7.50
2018-10-16T02:26:49.577Z,7.40
2018-10-16T02:29:19.078Z,7.50
2018-10-16T02:31:48.594Z,7.40
2018-10-16T02:34:18.359Z,7.40
2018-10-16T02:36:48.271Z,7.30
2018-10-16T02:39:18.075Z,7.30
2018-10-16T02:41:47.850Z,7.30
2018-10-16T02:44:17.629Z,7.20
2018-10-16T02:46:47.419Z,7.20
2018-10-16T02:49:17.310Z,7.20
2018-10-16T02:51:47.118Z,7.20
2018-10-16T02:54:17.006Z,7.20
2018-10-16T02:56:46.791Z,7.20
2018-10-16T02:59:16.549Z,7.20
2018-10-16T03:01:46.267Z,7.20
2018-10-16T03:04:16.003Z,7.20
2018-10-16T03:06:45.836Z,7.10
2018-10-16T03:09:15.604Z,7.10
2018-10-16T03:11:45.126Z,7.00
2018-10-16T03:14:14.685Z,7.00
2018-10-16T03:16:44.177Z,7.00
2018-10-16T03:19:13.654Z,7.00
2018-10-16T03:21:43.089Z,6.90
2018-10-16T03:24:12.534Z,6.90
2018-10-16T03:26:42.022Z,6.80
2018-10-16T03:29:11.778Z,6.80
2018-10-16T03:31:41.206Z,6.90
2018-10-16T03:34:10.742Z,6.90
2018-10-16T03:36:40.613Z,6.90
2018-10-16T03:39:11.857Z,6.80
2018-10-16T03:41:41.394Z,6.80
2018-10-16T03:44:13.090Z,6.70
2018-10-16T03:46:42.934Z,6.60
2018-10-16T03:49:12.418Z,6.60
2018-10-16T03:51:42.211Z,6.60
2018-10-16T03:54:11.705Z,6.60
2018-10-16T03:56:41.146Z,6.60
2018-10-16T03:59:10.634Z,6.60
2018-10-16T04:01:40.083Z,6.60
2018-10-16T04:04:09.550Z,6.60
2018-10-16T04:06:39.070Z,6.60
2018-10-16T04:09:08.594Z,6.60
2018-10-16T04:11:38.161Z,6.60
2018-10-16T04:14:08.592Z,6.60
2018-10-16T04:16:38.135Z,6.60
2018-10-16T04:19:07.854Z,6.60
2018-10-16T04:21:43.341Z,6.50
2018-10-16T04:24:13.672Z,6.50
2018-10-16T04:26:43.278Z,6.50
2018-10-16T04:29:14.490Z,6.50
2018-10-16T04:31:43.971Z,6.50
2018-10-16T04:34:15.460Z,6.40
2018-10-16T04:36:45.010Z,6.40
2018-10-16T04:39:15.242Z,6.30
2018-10-16T04:41:44.873Z,6.30
2018-10-16T04:44:14.474Z,6.30
2018-10-16T04:46:43.925Z,6.20
2018-10-16T04:49:13.365Z,6.20
2018-10-16T04:51:42.910Z,6.20
2018-10-16T04:54:12.354Z,6.20
2018-10-16T04:56:41.823Z,6.10
2018-10-16T04:59:11.267Z,6.10
2018-10-16T05:01:40.798Z,6.10
2018-10-16T05:04:10.368Z,6.00
2018-10-16T05:06:39.852Z,6.00
2018-10-16T05:09:10.262Z,6.00
2018-10-16T05:11:44.978Z,6.00
2018-10-16T05:14:14.485Z,6.00
2018-10-16T05:16:45.023Z,5.90
2018-10-16T05:19:14.579Z,6.00
2018-10-16T05:21:44.074Z,6.00
2018-10-16T05:24:13.578Z,5.90
2018-10-16T05:26:44.009Z,5.90
2018-10-16T05:29:13.513Z,6.00
2018-10-16T05:31:43.042Z,6.00
2018-10-16T05:34:12.496Z,6.10
2018-10-16T05:36:41.969Z,6.10
2018-10-16T05:39:12.708Z,6.10
2018-10-16T05:41:42.151Z,6.10
2018-10-16T05:44:13.458Z,6.10
2018-10-16T05:46:42.996Z,6.20
2018-10-16T05:49:12.491Z,6.20
2018-10-16T05:51:41.982Z,6.30
2018-10-16T05:54:11.485Z,6.30
2018-10-16T05:56:41.369Z,6.40
2018-10-16T05:59:10.948Z,6.40
2018-10-16T06:01:40.510Z,6.60
2018-10-16T06:04:09.981Z,6.70
2018-10-16T06:06:39.462Z,6.80
2018-10-16T06:09:10.650Z,6.80
2018-10-16T06:11:40.086Z,6.90
2018-10-16T06:14:09.550Z,7.00
2018-10-16T06:16:39.025Z,7.00
2018-10-16T06:19:10.238Z,7.10
2018-10-16T06:21:40.054Z,7.20
2018-10-16T06:24:09.563Z,7.20
2018-10-16T06:26:39.133Z,7.30
2018-10-16T06:29:08.642Z,7.40
2018-10-16T06:31:38.260Z,7.40
2018-10-16T06:34:07.750Z,7.50
2018-10-16T06:36:37.287Z,7.60
2018-10-16T06:39:09.366Z,7.60
2018-10-16T06:41:38.979Z,7.70
2018-10-16T06:44:08.922Z,7.90
2018-10-16T06:46:38.506Z,8.00
2018-10-16T06:49:07.948Z,8.10
2018-10-16T06:51:37.430Z,8.20
2018-10-16T06:54:06.932Z,8.30
2018-10-16T06:56:36.482Z,8.30
2018-10-16T06:59:06.274Z,8.40
2018-10-16T07:01:36.872Z,8.50
2018-10-16T07:04:06.993Z,8.60
2018-10-16T07:06:36.926Z,8.70
2018-10-16T07:09:08.179Z,8.70
2018-10-16T07:11:38.841Z,8.80
2018-10-16T07:14:10.518Z,8.80
2018-10-16T07:16:40.362Z,8.90
2018-10-16T07:19:10.562Z,9.00
2018-10-16T07:21:40.373Z,9.10
2018-10-16T07:24:09.989Z,9.20
2018-10-16T07:26:39.431Z,9.30
2018-10-16T07:29:09.487Z,9.40
2018-10-16T07:31:38.998Z,9.50
2018-10-16T07:34:08.526Z,9.70
2018-10-16T07:36:38.034Z,9.90
2018-10-16T07:39:10.986Z,10.00
2018-10-16T07:41:41.014Z,10.10
2018-10-16T07:44:11.073Z,10.20
2018-10-16T07:46:40.530Z,10.30
2018-10-16T07:49:10.346Z,10.40
2018-10-16T07:51:39.818Z,10.50
2018-10-16T07:54:09.261Z,10.70
2018-10-16T07:56:38.772Z,10.80
2018-10-16T07:59:08.227Z,11.00
2018-10-16T08:01:37.682Z,11.10
2018-10-16T08:04:07.585Z,11.30
2018-10-16T08:06:37.062Z,11.40
2018-10-16T08:09:11.023Z,11.60
2018-10-16T08:11:46.647Z,11.80
2018-10-16T08:14:17.422Z,12.00
2018-10-16T08:16:48.259Z,12.00
2018-10-16T08:19:17.889Z,12.20
2018-10-16T08:21:48.049Z,12.40
2018-10-16T08:24:17.575Z,12.60
2018-10-16T08:26:47.158Z,12.80
2018-10-16T08:29:16.667Z,12.90
2018-10-16T08:31:46.174Z,13.10
2018-10-16T08:34:15.737Z,13.30
2018-10-16T08:36:45.286Z,13.40
2018-10-16T08:39:21.976Z,13.50
2018-10-16T08:42:18.398Z,13.50
2018-10-16T08:45:25.086Z,13.60
2018-10-16T08:48:05.593Z,13.70
2018-10-16T08:50:47.725Z,13.80
2018-10-16T08:53:17.224Z,13.90
2018-10-16T08:55:46.859Z,14.10
2018-10-16T08:58:16.321Z,14.20
2018-10-16T09:00:46.782Z,14.40
2018-10-16T09:03:16.330Z,14.50
2018-10-16T09:05:45.771Z,14.70
2018-10-16T09:08:15.389Z,14.90
2018-10-16T09:10:45.245Z,15.00
2018-10-16T09:13:14.818Z,15.10
2018-10-16T09:15:44.253Z,15.30
2018-10-16T09:18:13.778Z,15.40
2018-10-16T09:20:43.220Z,15.50
2018-10-16T09:23:12.693Z,15.60
2018-10-16T09:25:42.225Z,15.80
2018-10-16T09:28:11.833Z,15.90
2018-10-16T09:30:42.703Z,16.10
2018-10-16T09:33:12.168Z,16.20
2018-10-16T09:35:41.654Z,16.40
2018-10-16T09:38:11.194Z,16.70
2018-10-16T09:40:41.378Z,16.80
2018-10-16T09:43:10.870Z,17.00
2018-10-16T09:45:40.382Z,17.20
2018-10-16T09:48:11.734Z,17.40
2018-10-16T09:50:41.262Z,17.50
2018-10-16T09:53:10.762Z,17.60
2018-10-16T09:55:40.267Z,17.70
2018-10-16T09:58:09.754Z,17.80
2018-10-16T10:00:44.365Z,17.80
2018-10-16T10:03:13.795Z,17.90
2018-10-16T10:05:43.268Z,18.10
2018-10-16T10:08:12.750Z,18.20
2018-10-16T10:10:42.199Z,18.30
2018-10-16T10:13:11.695Z,18.40
2018-10-16T10:15:41.181Z,18.50
2018-10-16T10:18:10.650Z,18.30
2018-10-16T10:20:40.126Z,18.10
2018-10-16T10:23:09.630Z,18.00
2018-10-16T10:25:39.066Z,18.00
2018-10-16T10:28:08.559Z,18.00
2018-10-16T10:30:38.034Z,18.10
2018-10-16T10:33:09.189Z,18.00
2018-10-16T10:35:38.695Z,17.90
2018-10-16T10:38:08.213Z,18.00
2018-10-16T10:40:37.702Z,17.90
2018-10-16T10:43:07.231Z,17.90
2018-10-16T10:45:36.766Z,18.00
2018-10-16T10:48:06.381Z,18.30
2018-10-16T10:50:38.323Z,18.60
2018-10-16T10:53:07.596Z,18.70
2018-10-16T10:55:37.540Z,18.70
2018-10-16T10:58:09.806Z,18.90
2018-10-16T11:00:39.425Z,19.00
2018-10-16T11:03:09.139Z,19.20
2018-10-16T11:05:38.690Z,19.50
2018-10-16T11:08:08.160Z,19.80
2018-10-16T11:10:37.651Z,20.10
2018-10-16T11:13:08.890Z,20.40
2018-10-16T11:15:38.475Z,20.60
2018-10-16T11:18:09.598Z,20.80
2018-10-16T11:20:39.108Z,21.00
2018-10-16T11:23:09.194Z,21.10
2018-10-16T11:25:40.311Z,21.10
2018-10-16T11:28:09.882Z,21.10
2018-10-16T11:30:39.442Z,21.10
2018-10-16T11:33:09.017Z,21.20
2018-10-16T11:35:39.431Z,21.40
2018-10-16T11:38:08.878Z,21.60
2018-10-16T11:40:40.161Z,21.80
2018-10-16T11:43:09.719Z,22.00
2018-10-16T11:45:39.407Z,22.10
2018-10-16T11:48:08.970Z,22.20
2018-10-16T11:50:38.590Z,22.40
2018-10-16T11:53:08.085Z,22.60
2018-10-16T11:55:37.564Z,22.70
2018-10-16T11:58:07.066Z,22.80
2018-10-16T12:00:36.606Z,22.80
2018-10-16T12:03:06.177Z,22.80
2018-10-16T12:05:35.608Z,22.80
2018-10-16T12:08:05.416Z,22.70
2018-10-16T12:10:34.896Z,22.50
2018-10-16T12:13:05.091Z,22.50
2018-10-16T12:15:34.601Z,22.30
2018-10-16T12:19:06.801Z,22.10
2018-10-16T12:21:36.285Z,22.20
2018-10-16T12:24:06.233Z,22.20
2018-10-16T12:26:35.749Z,22.30
2018-10-16T12:29:05.566Z,22.60
2018-10-16T12:31:35.051Z,22.90
2018-10-16T12:34:04.647Z,23.00
2018-10-16T12:36:34.189Z,23.10
2018-10-16T12:39:06.420Z,23.20
2018-10-16T12:41:35.891Z,23.40
2018-10-16T12:44:05.840Z,23.60
2018-10-16T12:46:35.413Z,23.60
2018-10-16T12:49:05.170Z,23.80
2018-10-16T12:51:35.575Z,23.90
2018-10-16T12:54:05.354Z,24.00
2018-10-16T12:56:35.138Z,23.90
2018-10-16T12:59:04.805Z,23.80
2018-10-16T13:01:34.387Z,24.00
2018-10-16T13:04:04.242Z,24.10
2018-10-16T13:06:33.844Z,24.20
2018-10-16T13:09:04.422Z,24.50
2018-10-16T13:11:34.075Z,24.80
2018-10-16T13:14:04.695Z,25.20
2018-10-16T13:16:34.204Z,25.60
2018-10-16T13:19:03.806Z,25.50
2018-10-16T13:21:33.444Z,24.90
2018-10-16T13:24:03.126Z,24.50
2018-10-16T13:26:32.624Z,24.10
2018-10-16T13:29:02.113Z,23.60
2018-10-16T13:31:31.574Z,23.40
2018-10-16T13:34:01.213Z,23.60
2018-10-16T13:36:30.676Z,23.90
2018-10-16T13:39:00.190Z,24.00
2018-10-16T13:41:29.819Z,24.10
2018-10-16T13:43:59.336Z,24.10
2018-10-16T13:46:28.860Z,24.00
2018-10-16T13:48:58.474Z,24.10
2018-10-16T13:51:27.977Z,24.20
2018-10-16T13:53:57.540Z,24.40
2018-10-16T13:56:27.391Z,24.40
2018-10-16T13:58:57.266Z,24.20
2018-10-16T14:01:26.743Z,24.30
2018-10-16T14:03:56.371Z,24.40
2018-10-16T14:06:25.838Z,24.10
2018-10-16T14:08:55.354Z,23.80
2018-10-16T14:11:24.879Z,23.80
2018-10-16T14:13:54.364Z,24.20
2018-10-16T14:16:23.854Z,24.70
2018-10-16T14:18:53.310Z,24.90
2018-10-16T14:21:22.878Z,25.70
2018-10-16T14:23:52.356Z,26.10
2018-10-16T14:26:22.579Z,26.00
2018-10-16T14:28:52.096Z,25.60
2018-10-16T14:31:21.550Z,25.20
2018-10-16T14:33:51.369Z,24.60
2018-10-16T14:36:21.071Z,24.30
2018-10-16T14:38:50.689Z,24.10
2018-10-16T14:41:20.613Z,24.00
2018-10-16T14:43:50.470Z,23.50
2018-10-16T14:46:20.137Z,23.30
2018-10-16T14:48:50.584Z,23.50
2018-10-16T14:51:20.076Z,23.60
2018-10-16T14:53:49.683Z,23.30
2018-10-16T14:56:19.172Z,22.80
2018-10-16T14:58:48.750Z,22.20
2018-10-16T15:01:18.206Z,21.60
2018-10-16T15:03:47.779Z,20.90
2018-10-16T15:06:17.334Z,20.30
2018-10-16T15:08:46.845Z,19.70
2018-10-16T15:11:16.350Z,19.30
2018-10-16T15:13:45.875Z,18.90
2018-10-16T15:16:15.512Z,18.60
2018-10-16T15:18:45.093Z,18.30
2018-10-16T15:21:14.543Z,18.20
2018-10-16T15:23:43.998Z,18.10
2018-10-16T15:26:13.496Z,17.90
2018-10-16T15:28:42.990Z,17.60
2018-10-16T15:31:14.198Z,17.40
2018-10-16T15:33:43.732Z,17.10
2018-10-16T15:36:13.332Z,17.00
2018-10-16T15:38:42.905Z,17.00
2018-10-16T15:41:12.386Z,16.90
2018-10-16T15:43:41.918Z,16.90
2018-10-16T15:46:11.979Z,16.90
2018-10-16T15:48:41.446Z,16.80
2018-10-16T15:51:10.980Z,16.80
2018-10-16T15:53:40.536Z,16.80
2018-10-16T15:56:10.063Z,16.70
2018-10-16T15:58:39.523Z,16.60
2018-10-16T16:01:08.994Z,16.50
2018-10-16T16:03:39.511Z,16.30
2018-10-16T16:06:09.086Z,16.20
2018-10-16T16:08:38.523Z,16.10
2018-10-16T16:11:09.491Z,16.00
2018-10-16T16:13:38.986Z,15.80
2018-10-16T16:16:08.577Z,15.60
2018-10-16T16:18:38.055Z,15.50
2018-10-16T16:21:07.683Z,15.40
2018-10-16T16:23:37.649Z,15.20
2018-10-16T16:26:07.653Z,15.20
2018-10-16T16:28:37.147Z,15.10
2018-10-16T16:31:06.607Z,15.20
2018-10-16T16:33:36.073Z,15.40
2018-10-16T16:36:05.740Z,15.30
2018-10-16T16:38:35.320Z,15.20
2018-10-16T16:41:04.988Z,15.20
2018-10-16T16:43:34.609Z,15.10
2018-10-16T16:46:04.190Z,15.10
2018-10-16T16:48:33.717Z,15.10
2018-10-16T16:51:03.248Z,15.00
2018-10-16T16:53:32.774Z,14.90
2018-10-16T16:56:02.298Z,14.90
2018-10-16T16:58:31.743Z,14.80
2018-10-16T17:01:01.202Z,14.70
2018-10-16T17:03:30.710Z,14.70
2018-10-16T17:06:00.216Z,14.70
2018-10-16T17:08:29.769Z,14.70
2018-10-16T17:10:59.361Z,14.80
2018-10-16T17:13:28.940Z,15.40
2018-10-16T17:15:58.531Z,15.70
2018-10-16T17:18:28.169Z,16.00
2018-10-16T17:20:57.671Z,16.80
2018-10-16T17:23:27.139Z,17.20
2018-10-16T17:25:57.119Z,17.70
2018-10-16T17:28:26.214Z,17.50
2018-10-16T17:30:55.770Z,17.20
2018-10-16T17:33:25.269Z,16.70
2018-10-16T17:35:54.775Z,16.30
2018-10-16T17:38:24.234Z,15.70
2018-10-16T17:40:53.693Z,15.30
2018-10-16T17:43:23.275Z,14.90
2018-10-16T17:45:52.791Z,14.50
2018-10-16T17:48:22.249Z,14.20
2018-10-16T17:50:51.744Z,14.10
2018-10-16T17:53:21.238Z,13.90
2018-10-16T17:55:50.695Z,13.70
2018-10-16T17:58:20.240Z,13.50
2018-10-16T18:00:50.869Z,13.20
2018-10-16T18:03:20.410Z,13.10
2018-10-16T18:05:50.838Z,12.90
2018-10-16T18:08:20.363Z,12.80
2018-10-16T18:10:50.776Z,12.80
2018-10-16T18:13:20.239Z,12.70
2018-10-16T18:15:49.742Z,12.60
2018-10-16T18:18:19.696Z,12.60
2018-10-16T18:20:49.142Z,12.50
2018-10-16T18:23:18.705Z,12.50
2018-10-16T18:25:48.274Z,12.40
2018-10-16T18:28:17.863Z,12.30
2018-10-16T18:30:47.425Z,12.20
2018-10-16T18:33:16.894Z,12.20
2018-10-16T18:35:46.361Z,12.10
2018-10-16T18:38:15.891Z,11.90
2018-10-16T18:40:45.526Z,11.90
2018-10-16T18:43:16.002Z,11.80
2018-10-16T18:45:45.556Z,11.60
2018-10-16T18:48:15.850Z,11.70
2018-10-16T18:50:45.502Z,11.70
2018-10-16T18:53:15.112Z,11.70
2018-10-16T18:55:44.751Z,11.60
2018-10-16T18:58:14.460Z,11.60
2018-10-16T19:00:44.026Z,11.50
2018-10-16T19:03:14.813Z,11.50
2018-10-16T19:05:45.226Z,11.40
2018-10-16T19:08:14.896Z,11.40
2018-10-16T19:10:44.494Z,11.40
2018-10-16T19:13:15.150Z,11.30
2018-10-16T19:15:45.558Z,11.20
2018-10-16T19:18:15.838Z,11.20
2018-10-16T19:20:45.578Z,11.20
2018-10-16T19:23:16.159Z,11.20
2018-10-16T19:25:45.763Z,11.10
2018-10-16T19:28:15.490Z,11.10
2018-10-16T19:30:45.196Z,11.00
2018-10-16T19:33:15.134Z,11.00
2018-10-16T19:35:44.677Z,11.00
2018-10-16T19:38:14.478Z,10.90
2018-10-16T19:40:44.038Z,10.80
2018-10-16T19:43:13.591Z,10.80
2018-10-16T19:45:43.166Z,10.70
2018-10-16T19:48:14.747Z,10.70
2018-10-16T19:50:44.252Z,10.70
2018-10-16T19:53:13.722Z,10.60
2018-10-16T19:55:43.206Z,10.60
2018-10-16T19:58:12.748Z,10.50
2018-10-16T20:00:42.232Z,10.50
2018-10-16T20:03:11.921Z,10.50
2018-10-16T20:05:41.669Z,10.50
2018-10-16T20:08:11.356Z,10.40
2018-10-16T20:10:40.939Z,10.40
2018-10-16T20:13:10.517Z,10.30
2018-10-16T20:15:40.074Z,10.30
2018-10-16T20:18:11.342Z,10.20
2018-10-16T20:20:42.427Z,10.10
2018-10-16T20:23:11.907Z,10.10
2018-10-16T20:25:41.510Z,10.00
2018-10-16T20:28:11.390Z,10.10
2018-10-16T20:30:40.997Z,10.00
2018-10-16T20:33:10.459Z,10.10
2018-10-16T20:35:39.974Z,10.00
2018-10-16T20:38:09.438Z,9.90
2018-10-16T20:40:38.883Z,9.90
2018-10-16T20:43:08.341Z,9.90
2018-10-16T20:45:37.858Z,9.90
2018-10-16T20:48:07.354Z,9.90
2018-10-16T20:50:36.842Z,9.80
2018-10-16T20:53:07.572Z,9.70
2018-10-16T20:55:37.440Z,9.60
2018-10-16T20:58:06.986Z,9.60
2018-10-16T21:00:36.695Z,9.60
2018-10-16T21:03:06.167Z,9.50
2018-10-16T21:05:35.631Z,9.50
2018-10-16T21:08:05.146Z,9.50
2018-10-16T21:10:34.650Z,9.40
2018-10-16T21:13:04.191Z,9.40
2018-10-16T21:15:33.718Z,9.40
2018-10-16T21:18:03.171Z,9.40
2018-10-16T21:20:32.654Z,9.40
2018-10-16T21:23:02.170Z,9.30
2018-10-16T21:25:31.614Z,9.30
2018-10-16T21:28:01.158Z,9.30
2018-10-16T21:30:30.586Z,9.30
2018-10-16T21:33:00.057Z,9.30
2018-10-16T21:35:29.565Z,9.20
2018-10-16T21:37:59.023Z,9.10
2018-10-16T21:40:28.457Z,9.10
2018-10-16T21:42:57.988Z,9.00
2018-10-16T21:45:28.059Z,9.00
2018-10-16T21:47:58.494Z,9.00
2018-10-16T21:50:27.941Z,8.90
2018-10-16T21:52:57.498Z,8.90
2018-10-16T21:55:27.790Z,8.90
2018-10-16T21:57:57.237Z,8.90
2018-10-16T22:00:32.346Z,8.90
2018-10-16T22:03:01.845Z,8.90
2018-10-16T22:05:31.298Z,8.90
2018-10-16T22:08:00.975Z,8.90
2018-10-16T22:10:30.393Z,8.90
2018-10-16T22:12:59.909Z,8.80
2018-10-16T22:15:29.414Z,8.80
2018-10-16T22:18:00.558Z,8.70
2018-10-16T22:20:29.998Z,8.70
2018-10-16T22:22:59.617Z,8.70
2018-10-16T22:25:29.098Z,8.70
2018-10-16T22:27:58.606Z,8.70
2018-10-16T22:30:29.122Z,8.60
2018-10-16T22:32:58.569Z,8.60
2018-10-16T22:35:28.035Z,8.60
2018-10-16T22:37:57.502Z,8.60
2018-10-16T22:40:26.954Z,8.50
2018-10-16T22:42:56.414Z,8.50
2018-10-16T22:45:25.899Z,8.50
2018-10-16T22:47:55.380Z,8.40
2018-10-16T22:50:24.864Z,8.40
2018-10-16T22:52:54.468Z,8.40
2018-10-16T22:55:23.950Z,8.50
2018-10-16T22:57:53.398Z,8.50
2018-10-16T23:00:22.915Z,8.50
2018-10-16T23:02:52.347Z,8.50
2018-10-16T23:05:21.861Z,8.50
2018-10-16T23:07:51.306Z,8.50
2018-10-16T23:10:20.878Z,8.50
2018-10-16T23:12:55.623Z,8.40
2018-10-16T23:15:25.181Z,8.40
2018-10-16T23:17:54.637Z,8.50
2018-10-16T23:20:24.173Z,8.50
2018-10-16T23:22:53.693Z,8.50
2018-10-16T23:25:23.213Z,8.50
2018-10-16T23:27:52.757Z,8.50
2018-10-16T23:30:22.262Z,8.50
2018-10-16T23:32:51.748Z,8.40
2018-10-16T23:35:21.238Z,8.50
2018-10-16T23:37:50.719Z,8.50
2018-10-16T23:40:20.255Z,8.50
2018-10-16T23:42:49.754Z,8.50
2018-10-16T23:45:19.217Z,8.60
2018-10-16T23:47:48.810Z,8.60
2018-10-16T23:50:18.298Z,8.70
2018-10-16T23:52:47.813Z,8.60
2018-10-16T23:55:17.360Z,8.60
2018-10-16T23:57:47.047Z,8.60
